Sequim, WA

8:36 AM PDT on September 16, 2014 (GMT -0700)
Bell Hill | Change Station
CLOSE
Current Station
Personal Weather Station
Location: Sequim, WA
Elevation: 886 ft
Nearby Weather Stations

Elev 886 ft 48.05 °N, 123.08 °W | Updated 1 second ago

Partly Cloudy
Partly Cloudy
58.3 °F
Feels Like 58.3 °F
N
5.4
Wind Variable Wind from East
Gusts 8.3 mph

Today
High -- | Low -- °F
--% Chance of Precip.
Yesterday
High -- | Low -- °F
Precip. -- in
6:51 AM 7:22 PM
Last Quarter, 44% visible
Pressure 29.88 in
Visibility 10.0 miles
Clouds Clear
Dew Point 14 °F
Humidity 17%
Rainfall 0.00 in
Snow Depth 1 in , 0 in , 1 in
UV 0 out of 12
Pollen 1.10 out of 12
Air Quality Not available.
Flu Activity Not available.
METAR KCLM 161453Z AUTO 22003KT 10SM CLR 10/07 A2987 RMK AO2 SLP116 T01000067 51006 TSNO $

More Conditions Fewer Conditions

Pressure 29.88 in
Visibility 10.0 miles
Clouds Clear
Dew Point 14 °F
Humidity 17%
Rainfall 0.00 in
Snow Depth 1 in , 0 in , 1 in
UV 0 out of 12
Pollen 1.10 out of 12
Air Quality Not available.
Flu Activity Not available.
METAR KCLM 161453Z AUTO 22003KT 10SM CLR 10/07 A2987 RMK AO2 SLP116 T01000067 51006 TSNO $

More Conditions Fewer Conditions

10-Day Weather Forecast

Almanac

Astronomy

Sep. 16, 2014 Rise Set
Actual Time 6:51 AM PDT 7:22 PM PDT
Civil Twilight 6:19 AM PDT 7:53 PM PDT
Nautical Twilight 5:42 AM PDT 8:30 PM PDT
Astronomical Twilight 5:03 AM PDT 9:09 PM PDT
Moon No Moon Rise 3:10 PM PDT
Length of Visible Light 13h 33m
Length of Day
12h 31m
Tomorrow will be 3m 27s shorter.
Last Quarter, 44% of the Moon is Illuminated
Today
Last Quarter
Sep 24
New
Oct 1
First Quarter
Oct 8
Full
Oct 15
Last Quarter

Today's Extremes

State Highs State Lows

Community

WunderPhotos

Upload Photos

1,753,810 photos uploaded!

Nearby

Snow Depth

Station Depth Elevation
Pigtail Peak 1 in 5900 ft
Lyman Lake 0 in 5900 ft
Surprise Lakes 1 in 4250 ft
White Pass E.S. 0 in 4500 ft
Meadows Pass 0 in 3500 ft

Earthquake Activity

City Distance Mag. Time & Date
North Bend, Washington 74 miles 2.6 8:21 AM PDT
2014-09-16
Morton, Washington 125 miles 3.0 5:43 AM PDT
2014-09-16
Minimum magnitude displayed is 2.5.

Coastal Water Temperatures

Place Temperature
Port Townsend, WA 53.1 °F
Friday Harbor, WA 53.1 °F
Port Angeles, WA 51.1 °F
Seattle, WA 55.9 °F

Nearby Weather Stations